Observation data for Turkey on 11/09/2019      Previous  Date       Current Mesonet Observations  Soil Data  Daily Summary Page  Observations in Plain Language
KTUR 090600Z 25005KT 06/05 A3025 RMK A01 T00630049  RH  092%=      5-min Rain = 0
KTUR 090605Z 25005KT 06/05 A3025 RMK A01 T00620049  RH  093%=      5-min Rain = 0
KTUR 090610Z 25005KT 06/05 A3025 RMK A01 T00580045  RH  093%=      5-min Rain = 0
KTUR 090615Z 25005KT 06/05 A3025 RMK A01 T00570045  RH  094%=      5-min Rain = 0
KTUR 090620Z 25005KT 06/05 A3025 RMK A01 T00560045  RH  094%=      5-min Rain = 0
KTUR 090625Z 24006KT 06/05 A3025 RMK A01 T00560045  RH  094%=      5-min Rain = 0
KTUR 090630Z 24006KT 06/05 A3025 RMK A01 T00580048  RH  095%=      5-min Rain = 0
KTUR 090635Z 23006KT 06/05 A3025 RMK A01 T00570047  RH  094%=      5-min Rain = 0
KTUR 090640Z 23007KT 06/04 A3025 RMK A01 T00550044  RH  094%=      5-min Rain = 0
KTUR 090645Z 22007KT 05/04 A3025 RMK A01 T00530043  RH  094%=      5-min Rain = 0
KTUR 090650Z 22006KT 05/04 A3025 RMK A01 T00520042  RH  095%=      5-min Rain = 0
KTUR 090655Z 22006KT 05/04 A3024 RMK A01 T00510042  RH  095%=      5-min Rain = 0
KTUR 090700Z 22007KT 05/04 A3024 RMK A01 T00510042  RH  095%=      5-min Rain = 0
KTUR 090705Z 22007KT 05/04 A3024 RMK A01 T00500042  RH  096%=      5-min Rain = 0
KTUR 090710Z 22007KT 05/04 A3024 RMK A01 T00480040  RH  096%=      5-min Rain = 0
KTUR 090715Z 23006KT 05/04 A3024 RMK A01 T00460039  RH  096%=      5-min Rain = 0
KTUR 090720Z 23006KT 05/04 A3024 RMK A01 T00470040  RH  096%=      5-min Rain = 0
KTUR 090725Z 22006KT 05/04 A3024 RMK A01 T00450038  RH  096%=      5-min Rain = 0
KTUR 090730Z 22005KT 04/04 A3024 RMK A01 T00440037  RH  097%=      5-min Rain = 0
KTUR 090735Z 22005KT 05/04 A3023 RMK A01 T00450038  RH  097%=      5-min Rain = 0
KTUR 090740Z 23006KT 05/04 A3023 RMK A01 T00450039  RH  097%=      5-min Rain = 0
KTUR 090745Z 23006KT 05/04 A3023 RMK A01 T00470041  RH  097%=      5-min Rain = 0
KTUR 090750Z 23007KT 05/04 A3023 RMK A01 T00470041  RH  097%=      5-min Rain = 0
KTUR 090755Z 22007KT 05/04 A3023 RMK A01 T00450039  RH  097%=      5-min Rain = 0
KTUR 090800Z 23007KT 05/04 A3023 RMK A01 T00470041  RH  097%=      5-min Rain = 0
KTUR 090805Z 23007KT 05/04 A3023 RMK A01 T00480042  RH  097%=      5-min Rain = 0
KTUR 090810Z 23007KT 05/04 A3022 RMK A01 T00470040  RH  097%=      5-min Rain = 0
KTUR 090815Z 23007KT 05/04 A3022 RMK A01 T00470040  RH  097%=      5-min Rain = 0
KTUR 090820Z 23006KT 05/04 A3022 RMK A01 T00470040  RH  097%=      5-min Rain = 0
KTUR 090825Z 22006KT 05/04 A3022 RMK A01 T00460039  RH  097%=      5-min Rain = 0
KTUR 090830Z 23006KT 05/04 A3022 RMK A01 T00460039  RH  097%=      5-min Rain = 0
KTUR 090835Z 22007KT 05/04 A3022 RMK A01 T00450039  RH  097%=      5-min Rain = 0
KTUR 090840Z 22006KT 04/04 A3022 RMK A01 T00440037  RH  097%=      5-min Rain = 0
KTUR 090845Z 22006KT 04/04 A3021 RMK A01 T00430037  RH  097%=      5-min Rain = 0
KTUR 090850Z 23005KT 05/04 A3021 RMK A01 T00460040  RH  097%=      5-min Rain = 0
KTUR 090855Z 24006KT 05/04 A3021 RMK A01 T00470042  RH  097%=      5-min Rain = 0
KTUR 090900Z 24007KT 05/04 A3021 RMK A01 T00490043  RH  097%=      5-min Rain = 0
KTUR 090905Z 23007KT 05/04 A302 RMK A01 T00500043  RH  097%=      5-min Rain = 0
KTUR 090910Z 22007KT 05/04 A302 RMK A01 T00460038  RH  096%=      5-min Rain = 0
KTUR 090915Z 22007KT 05/04 A302 RMK A01 T00450038  RH  096%=      5-min Rain = 0
KTUR 090920Z 22008KT 04/04 A302 RMK A01 T00440037  RH  096%=      5-min Rain = 0
KTUR 090925Z 22007KT 05/04 A302 RMK A01 T00460038  RH  096%=      5-min Rain = 0
KTUR 090930Z 22007KT 05/04 A3019 RMK A01 T00480040  RH  096%=      5-min Rain = 0
KTUR 090935Z 22007KT 05/04 A3019 RMK A01 T00470038  RH  095%=      5-min Rain = 0
KTUR 090940Z 22007KT 05/04 A3019 RMK A01 T00470039  RH  096%=      5-min Rain = 0
KTUR 090945Z 22007KT 05/04 A3019 RMK A01 T00500042  RH  096%=      5-min Rain = 0
KTUR 090950Z 22007KT 05/04 A3018 RMK A01 T00500041  RH  095%=      5-min Rain = 0
KTUR 090955Z 22006KT 05/04 A3018 RMK A01 T00470038  RH  095%=      5-min Rain = 0
KTUR 091000Z 22007KT 05/04 A3018 RMK A01 T00470038  RH  095%=      5-min Rain = 0
KTUR 091005Z 21007KT 05/04 A3018 RMK A01 T00470038  RH  095%=      5-min Rain = 0
KTUR 091010Z 21007KT 05/04 A3018 RMK A01 T00520043  RH  096%=      5-min Rain = 0
KTUR 091015Z 21006KT 05/04 A3018 RMK A01 T00510040  RH  094%=      5-min Rain = 0
KTUR 091020Z 21007KT 05/04 A3018 RMK A01 T00500040  RH  094%=      5-min Rain = 0
KTUR 091025Z 21007KT 05/04 A3018 RMK A01 T00490039  RH  094%=      5-min Rain = 0
KTUR 091030Z 22007KT 05/04 A3018 RMK A01 T00490039  RH  095%=      5-min Rain = 0
KTUR 091035Z 22008KT 05/04 A3018 RMK A01 T00490039  RH  095%=      5-min Rain = 0
KTUR 091040Z 22009KT 05/04 A3018 RMK A01 T00510041  RH  095%=      5-min Rain = 0
KTUR 091045Z 22009KT 05/04 A3018 RMK A01 T00530042  RH  094%=      5-min Rain = 0
KTUR 091050Z 22008KT 05/04 A3018 RMK A01 T00530042  RH  094%=      5-min Rain = 0
KTUR 091055Z 22009KT 05/04 A3018 RMK A01 T00520041  RH  094%=      5-min Rain = 0
KTUR 091100Z 22009KT 05/04 A3018 RMK A01 T00530042  RH  094%=      5-min Rain = 0
KTUR 091105Z 23008KT 05/04 A3018 RMK A01 T00520040  RH  093%=      5-min Rain = 0
KTUR 091110Z 23008KT 05/04 A3018 RMK A01 T00500039  RH  094%=      5-min Rain = 0
KTUR 091115Z 23008KT 05/04 A3018 RMK A01 T00500039  RH  094%=      5-min Rain = 0
KTUR 091120Z 23008KT 05/04 A3018 RMK A01 T00490038  RH  094%=      5-min Rain = 0
KTUR 091125Z 23008KT 05/04 A3018 RMK A01 T00480038  RH  094%=      5-min Rain = 0
KTUR 091130Z 22007KT 05/04 A3018 RMK A01 T00460036  RH  095%=      5-min Rain = 0
KTUR 091135Z 23008KT 05/04 A3018 RMK A01 T00450036  RH  095%=      5-min Rain = 0
KTUR 091140Z 23008KT 05/04 A3018 RMK A01 T00460037  RH  095%=      5-min Rain = 0
KTUR 091145Z 24008KT 05/04 A3018 RMK A01 T00450036  RH  095%=      5-min Rain = 0
KTUR 091150Z 24008KT 05/04 A3018 RMK A01 T00460037  RH  095%=      5-min Rain = 0
KTUR 091155Z 23008KT 05/04 A3018 RMK A01 T00450036  RH  095%=      5-min Rain = 0
KTUR 091200Z 24010KT 05/04 A3018 RMK A01 T00500039  RH  094%=      5-min Rain = 0
KTUR 091205Z 24009KT 05/04 A3018 RMK A01 T00530038  RH  092%=      5-min Rain = 0
KTUR 091210Z 24009KT 05/04 A3018 RMK A01 T00530037  RH  091%=      5-min Rain = 0
KTUR 091215Z 25008KT 05/04 A3018 RMK A01 T00530037  RH  090%=      5-min Rain = 0
KTUR 091220Z 24008KT 06/04 A3018 RMK A01 T00560037  RH  089%=      5-min Rain = 0
KTUR 091225Z 23007KT 05/03 A3019 RMK A01 T00530034  RH  089%=      5-min Rain = 0
KTUR 091230Z 24009KT 05/03 A3019 RMK A01 T00500034  RH  090%=      5-min Rain = 0
KTUR 091235Z 24008KT 05/03 A3019 RMK A01 T00500034  RH  090%=      5-min Rain = 0
KTUR 091240Z 24008KT 05/03 A3019 RMK A01 T00480032  RH  090%=      5-min Rain = 0
KTUR 091245Z 23008KT 04/03 A3019 RMK A01 T00440029  RH  091%=      5-min Rain = 0
KTUR 091250Z 23008KT 04/03 A3019 RMK A01 T00420028  RH  092%=      5-min Rain = 0
KTUR 091255Z 23008KT 04/03 A3019 RMK A01 T00410028  RH  093%=      5-min Rain = 0
KTUR 091300Z 22008KT 04/03 A3019 RMK A01 T00410028  RH  093%=      5-min Rain = 0
KTUR 091305Z 22008KT 04/03 A3019 RMK A01 T00400028  RH  093%=      5-min Rain = 0
KTUR 091310Z 22008KT 04/03 A3019 RMK A01 T00400029  RH  093%=      5-min Rain = 0
KTUR 091315Z 22008KT 04/03 A3019 RMK A01 T00410029  RH  094%=      5-min Rain = 0
KTUR 091320Z 23009KT 04/03 A3019 RMK A01 T00420031  RH  093%=      5-min Rain = 0
KTUR 091325Z 22009KT 04/03 A3019 RMK A01 T00420030  RH  093%=      5-min Rain = 0
KTUR 091330Z 21007KT 04/03 A3019 RMK A01 T00430031  RH  093%=      5-min Rain = 0
KTUR 091335Z 22007KT 05/03 A3019 RMK A01 T00450033  RH  093%=      5-min Rain = 0
KTUR 091340Z 22007KT 05/03 A3019 RMK A01 T00460034  RH  093%=      5-min Rain = 0
KTUR 091345Z 23007KT 05/04 A3019 RMK A01 T00490036  RH  093%=      5-min Rain = 0
KTUR 091350Z 22007KT 05/04 A3019 RMK A01 T00500037  RH  092%=      5-min Rain = 0
KTUR 091355Z 22007KT 05/04 A3019 RMK A01 T00520039  RH  092%=      5-min Rain = 0
KTUR 091400Z 22006KT 05/04 A3019 RMK A01 T00540040  RH  092%=      5-min Rain = 0
KTUR 091405Z 21006KT 06/04 A3019 RMK A01 T00570043  RH  092%=      5-min Rain = 0
KTUR 091410Z 21007KT 06/05 A3019 RMK A01 T00610046  RH  091%=      5-min Rain = 0
KTUR 091415Z 22007KT 07/05 A302 RMK A01 T00660048  RH  090%=      5-min Rain = 0
KTUR 091420Z 22006KT 07/05 A302 RMK A01 T00690050  RH  089%=      5-min Rain = 0
KTUR 091425Z 22006KT 07/05 A302 RMK A01 T00720052  RH  088%=      5-min Rain = 0
KTUR 091430Z 22006KT 08/05 A302 RMK A01 T00760054  RH  087%=      5-min Rain = 0
KTUR 091435Z 21006KT 08/06 A3021 RMK A01 T00780057  RH  087%=      5-min Rain = 0
KTUR 091440Z 21005KT 08/06 A3021 RMK A01 T00790058  RH  088%=      5-min Rain = 0
KTUR 091445Z 21005KT 08/06 A3021 RMK A01 T00810059  RH  087%=      5-min Rain = 0
KTUR 091450Z 20005KT 09/06 A3021 RMK A01 T00860062  RH  086%=      5-min Rain = 0
KTUR 091455Z 20005KT 09/07 A3021 RMK A01 T00910065  RH  085%=      5-min Rain = 0
KTUR 091500Z 20006KT 09/06 A3021 RMK A01 T00940064  RH  083%=      5-min Rain = 0
KTUR 091505Z 20005KT 10/07 A3021 RMK A01 T00980067  RH  082%=      5-min Rain = 0
KTUR 091510Z 20005KT 10/07 A3021 RMK A01 T01000067  RH  081%=      5-min Rain = 0
KTUR 091515Z 21005KT 10/07 A3021 RMK A01 T01030068  RH  080%=      5-min Rain = 0
KTUR 091520Z 21005KT 11/07 A3021 RMK A01 T01070069  RH  079%=      5-min Rain = 0
KTUR 091525Z 21005KT 11/07 A3021 RMK A01 T01110070  RH  077%=      5-min Rain = 0
KTUR 091530Z 22004KT 12/07 A3021 RMK A01 T01150066  RH  073%=      5-min Rain = 0
KTUR 091535Z 20004KT 12/07 A3021 RMK A01 T01200066  RH  070%=      5-min Rain = 0
KTUR 091540Z 20003KT 13/07 A3021 RMK A01 T01260070  RH  070%=      5-min Rain = 0
KTUR 091545Z 20003KT 13/07 A3021 RMK A01 T01300070  RH  068%=      5-min Rain = 0
KTUR 091550Z 19003KT 14/07 A3021 RMK A01 T01350072  RH  067%=      5-min Rain = 0
KTUR 091555Z 19003KT 14/07 A3021 RMK A01 T01390070  RH  064%=      5-min Rain = 0
KTUR 091600Z 19002KT 14/07 A3021 RMK A01 T01440069  RH  062%=      5-min Rain = 0
KTUR 091605Z 21003KT 15/07 A3021 RMK A01 T01480072  RH  061%=      5-min Rain = 0
KTUR 091610Z 23002KT 15/07 A3021 RMK A01 T01520071  RH  059%=      5-min Rain = 0
KTUR 091615Z 21003KT 15/07 A3021 RMK A01 T01540069  RH  058%=      5-min Rain = 0
KTUR 091620Z 20002KT 16/07 A3021 RMK A01 T01580071  RH  057%=      5-min Rain = 0
KTUR 091625Z 19001KT 16/07 A3021 RMK A01 T01630070  RH  055%=      5-min Rain = 0
KTUR 091630Z 23002KT 17/07 A3021 RMK A01 T01680069  RH  053%=      5-min Rain = 0
KTUR 091635Z 22002KT 17/07 A3021 RMK A01 T01680068  RH  052%=      5-min Rain = 0
KTUR 091640Z 21003KT 17/07 A3021 RMK A01 T01700069  RH  052%=      5-min Rain = 0
KTUR 091645Z 21004KT 17/06 A3021 RMK A01 T01730063  RH  049%=      5-min Rain = 0
KTUR 091650Z 21004KT 18/06 A3021 RMK A01 T01780057  RH  045%=      5-min Rain = 0
KTUR 091655Z 22003KT 18/06 A3021 RMK A01 T01830059  RH  045%=      5-min Rain = 0
KTUR 091700Z 21002KT 19/05 A302 RMK A01 T01860051  RH  042%=      5-min Rain = 0
KTUR 091705Z 22004KT 19/05 A302 RMK A01 T01890050  RH  040%=      5-min Rain = 0
KTUR 091710Z 21003KT 19/05 A302 RMK A01 T01900049  RH  040%=      5-min Rain = 0
KTUR 091715Z 22003KT 19/05 A302 RMK A01 T01920051  RH  040%=      5-min Rain = 0
KTUR 091720Z 20003KT 19/06 A302 RMK A01 T01930057  RH  041%=      5-min Rain = 0
KTUR 091725Z 24002KT 20/06 A302 RMK A01 T01950060  RH  042%=      5-min Rain = 0
KTUR 091730Z 24001KT 20/06 A3019 RMK A01 T01980062  RH  042%=      5-min Rain = 0
KTUR 091735Z 20003KT 20/07 A3019 RMK A01 T02020066  RH  042%=      5-min Rain = 0
KTUR 091740Z 21002KT 20/06 A3019 RMK A01 T02030064  RH  041%=      5-min Rain = 0
KTUR 091745Z 20002KT 21/07 A3019 RMK A01 T02080065  RH  040%=      5-min Rain = 0
KTUR 091750Z 23003KT 21/07 A3019 RMK A01 T02090067  RH  040%=      5-min Rain = 0
KTUR 091755Z 23002KT 21/07 A3018 RMK A01 T02120066  RH  039%=      5-min Rain = 0
KTUR 091800Z 19002KT 22/07 A3018 RMK A01 T02150066  RH  039%=      5-min Rain = 0
KTUR 091805Z 22003KT 22/07 A3018 RMK A01 T02180065  RH  038%=      5-min Rain = 0
KTUR 091810Z 23003KT 22/06 A3018 RMK A01 T02170061  RH  037%=      5-min Rain = 0
KTUR 091815Z 21004KT 22/05 A3017 RMK A01 T02180049  RH  034%=      5-min Rain = 0
KTUR 091820Z 22005KT 22/05 A3017 RMK A01 T02210045  RH  032%=      5-min Rain = 0
KTUR 091825Z 20005G10KT 23/05 A3016 RMK A01 T02250047  RH  032%=      5-min Rain = 0
KTUR 091830Z 22005KT 23/05 A3016 RMK A01 T02280047  RH  031%=      5-min Rain = 0
KTUR 091835Z 20006KT 23/05 A3015 RMK A01 T02280048  RH  031%=      5-min Rain = 0
KTUR 091840Z 20006KT 23/05 A3015 RMK A01 T02280046  RH  031%=      5-min Rain = 0
KTUR 091845Z 23005KT 23/05 A3015 RMK A01 T02310045  RH  030%=      5-min Rain = 0
KTUR 091850Z 21006KT 23/05 A3014 RMK A01 T02340045  RH  030%=      5-min Rain = 0
KTUR 091855Z 21008KT 24/04 A3014 RMK A01 T02360039  RH  028%=      5-min Rain = 0
KTUR 091900Z 21008KT 23/03 A3014 RMK A01 T02340030  RH  027%=      5-min Rain = 0
KTUR 091905Z 22009KT 24/04 A3013 RMK A01 T02360035  RH  027%=      5-min Rain = 0
KTUR 091910Z 21007KT 24/04 A3013 RMK A01 T02370037  RH  028%=      5-min Rain = 0
KTUR 091915Z 21007KT 24/04 A3013 RMK A01 T02390035  RH  027%=      5-min Rain = 0
KTUR 091920Z 20009G14KT 24/03 A3012 RMK A01 T02390028  RH  026%=      5-min Rain = 0
KTUR 091925Z 20010KT 24/03 A3012 RMK A01 T02410028  RH  025%=      5-min Rain = 0
KTUR 091930Z 22010KT 24/02 A3012 RMK A01 T02410024  RH  025%=      5-min Rain = 0
KTUR 091935Z 23009KT 24/03 A3011 RMK A01 T02420029  RH  025%=      5-min Rain = 0
KTUR 091940Z 20009KT 24/03 A3011 RMK A01 T02430028  RH  025%=      5-min Rain = 0
KTUR 091945Z 21010G15KT 24/03 A3011 RMK A01 T02430025  RH  024%=      5-min Rain = 0
KTUR 091950Z 20012G17KT 24/02 A3011 RMK A01 T02440019  RH  023%=      5-min Rain = 0
KTUR 091955Z 20014G19KT 24/01 A3011 RMK A01 T02420011  RH  022%=      5-min Rain = 0
KTUR 092000Z 20011KT 24/02 A3011 RMK A01 T02440015  RH  023%=      5-min Rain = 0
KTUR 092005Z 21011KT 24/03 A3011 RMK A01 T02440027  RH  025%=      5-min Rain = 0
KTUR 092010Z 22010G15KT 24/02 A301 RMK A01 T02440022  RH  024%=      5-min Rain = 0
KTUR 092015Z 22011G17KT 25/02 A301 RMK A01 T02450017  RH  023%=      5-min Rain = 0
KTUR 092020Z 21009G14KT 25/02 A301 RMK A01 T02460019  RH  023%=      5-min Rain = 0
KTUR 092025Z 22010KT 25/02 A301 RMK A01 T02450021  RH  023%=      5-min Rain = 0
KTUR 092030Z 20011KT 25/02 A301 RMK A01 T02470018  RH  023%=      5-min Rain = 0
KTUR 092035Z 20011G16KT 25/02 A301 RMK A01 T02460016  RH  022%=      5-min Rain = 0
KTUR 092040Z 19012KT 25/02 A3009 RMK A01 T02450015  RH  022%=      5-min Rain = 0
KTUR 092045Z 20012KT 25/02 A3009 RMK A01 T02460017  RH  023%=      5-min Rain = 0
KTUR 092050Z 21011KT 25/01 A3009 RMK A01 T02450009  RH  021%=      5-min Rain = 0
KTUR 092055Z 20010KT 25/00 A3009 RMK A01 T02460004  RH  020%=      5-min Rain = 0
KTUR 092100Z 19011KT 25/01 A3009 RMK A01 T02470008  RH  021%=      5-min Rain = 0
KTUR 092105Z 19013KT 24/00 A3008 RMK A01 T02440003  RH  021%=      5-min Rain = 0
KTUR 092110Z 19012KT 24/M00 A3008 RMK A01 T02441004  RH  020%=      5-min Rain = 0
KTUR 092115Z 21009KT 25/01 A3008 RMK A01 T02450009  RH  021%=      5-min Rain = 0
KTUR 092120Z 21010KT 25/01 A3008 RMK A01 T02460009  RH  021%=      5-min Rain = 0
KTUR 092125Z 22010KT 25/01 A3008 RMK A01 T02450010  RH  022%=      5-min Rain = 0
KTUR 092130Z 20011KT 25/01 A3008 RMK A01 T02450005  RH  021%=      5-min Rain = 0
KTUR 092135Z 21009KT 24/00 A3008 RMK A01 T02440001  RH  020%=      5-min Rain = 0
KTUR 092140Z 20009KT 25/01 A3007 RMK A01 T02460012  RH  022%=      5-min Rain = 0
KTUR 092145Z 20010KT 24/01 A3007 RMK A01 T02440008  RH  021%=      5-min Rain = 0
KTUR 092150Z 19011KT 24/01 A3007 RMK A01 T02430009  RH  022%=      5-min Rain = 0
KTUR 092155Z 20010KT 24/02 A3007 RMK A01 T02420015  RH  023%=      5-min Rain = 0
KTUR 092200Z 20010KT 24/02 A3007 RMK A01 T02430016  RH  023%=      5-min Rain = 0
KTUR 092205Z 19010KT 24/01 A3007 RMK A01 T02410011  RH  022%=      5-min Rain = 0
KTUR 092210Z 21010KT 24/01 A3006 RMK A01 T02410008  RH  022%=      5-min Rain = 0
KTUR 092215Z 20011KT 24/01 A3006 RMK A01 T02400007  RH  022%=      5-min Rain = 0
KTUR 092220Z 21009KT 24/01 A3006 RMK A01 T02400009  RH  022%=      5-min Rain = 0
KTUR 092225Z 20009KT 24/01 A3006 RMK A01 T02390009  RH  022%=      5-min Rain = 0
KTUR 092230Z 21008KT 24/01 A3006 RMK A01 T02390011  RH  023%=      5-min Rain = 0
KTUR 092235Z 20009KT 24/01 A3006 RMK A01 T02380009  RH  022%=      5-min Rain = 0
KTUR 092240Z 19009KT 24/01 A3006 RMK A01 T02360013  RH  023%=      5-min Rain = 0
KTUR 092245Z 20009KT 24/01 A3006 RMK A01 T02350014  RH  024%=      5-min Rain = 0
KTUR 092250Z 20008KT 23/02 A3006 RMK A01 T02330016  RH  024%=      5-min Rain = 0
KTUR 092255Z 19007KT 23/02 A3006 RMK A01 T02310018  RH  025%=      5-min Rain = 0
KTUR 092300Z 19007KT 23/02 A3006 RMK A01 T02290019  RH  025%=      5-min Rain = 0
KTUR 092305Z 18007KT 23/02 A3006 RMK A01 T02260021  RH  026%=      5-min Rain = 0
KTUR 092310Z 18008KT 22/03 A3006 RMK A01 T02220029  RH  028%=      5-min Rain = 0
KTUR 092315Z 18008KT 22/03 A3006 RMK A01 T02160033  RH  030%=      5-min Rain = 0
KTUR 092320Z 18008KT 21/03 A3006 RMK A01 T02110034  RH  032%=      5-min Rain = 0
KTUR 092325Z 18008KT 21/04 A3006 RMK A01 T02060036  RH  033%=      5-min Rain = 0
KTUR 092330Z 18008KT 20/04 A3006 RMK A01 T02010038  RH  035%=      5-min Rain = 0
KTUR 092335Z 17008KT 19/04 A3006 RMK A01 T01940041  RH  037%=      5-min Rain = 0
KTUR 092340Z 18008KT 19/04 A3006 RMK A01 T01900043  RH  038%=      5-min Rain = 0
KTUR 092345Z 18008KT 19/04 A3006 RMK A01 T01860044  RH  040%=      5-min Rain = 0
KTUR 092350Z 18008KT 18/05 A3006 RMK A01 T01790045  RH  042%=      5-min Rain = 0
KTUR 092355Z 18008KT 18/05 A3006 RMK A01 T01750045  RH  043%=      5-min Rain = 0
KTUR 100000Z 18009KT 17/05 A3006 RMK A01 T01720046  RH  044%=      5-min Rain = 0
KTUR 100005Z 18009KT 17/05 A3006 RMK A01 T01700046  RH  044%=      5-min Rain = 0
KTUR 100010Z 18008KT 17/05 A3006 RMK A01 T01680045  RH  045%=      5-min Rain = 0
KTUR 100015Z 18008KT 17/05 A3006 RMK A01 T01660045  RH  045%=      5-min Rain = 0
KTUR 100020Z 17008KT 16/05 A3006 RMK A01 T01630046  RH  046%=      5-min Rain = 0
KTUR 100025Z 17008KT 16/05 A3007 RMK A01 T01610047  RH  047%=      5-min Rain = 0
KTUR 100030Z 18009KT 16/05 A3007 RMK A01 T01580048  RH  049%=      5-min Rain = 0
KTUR 100035Z 18009KT 16/05 A3006 RMK A01 T01560050  RH  050%=      5-min Rain = 0
KTUR 100040Z 18009KT 15/05 A3007 RMK A01 T01530052  RH  051%=      5-min Rain = 0
KTUR 100045Z 18009KT 15/05 A3007 RMK A01 T01500053  RH  053%=      5-min Rain = 0
KTUR 100050Z 18009KT 15/05 A3007 RMK A01 T01500054  RH  053%=      5-min Rain = 0
KTUR 100055Z 18009KT 15/05 A3007 RMK A01 T01480054  RH  054%=      5-min Rain = 0
KTUR 100100Z 18009KT 14/05 A3007 RMK A01 T01440054  RH  056%=      5-min Rain = 0
KTUR 100105Z 18008KT 14/06 A3007 RMK A01 T01390055  RH  058%=      5-min Rain = 0
KTUR 100110Z 18008KT 13/06 A3007 RMK A01 T01330056  RH  061%=      5-min Rain = 0
KTUR 100115Z 19009KT 13/06 A3007 RMK A01 T01310058  RH  062%=      5-min Rain = 0
KTUR 100120Z 19007KT 13/06 A3007 RMK A01 T01310057  RH  062%=      5-min Rain = 0
KTUR 100125Z 20007KT 12/06 A3007 RMK A01 T01230058  RH  065%=      5-min Rain = 0
KTUR 100130Z 21008KT 12/06 A3007 RMK A01 T01210059  RH  067%=      5-min Rain = 0
KTUR 100135Z 21008KT 13/06 A3007 RMK A01 T01260058  RH  064%=      5-min Rain = 0
KTUR 100140Z 21008KT 12/06 A3007 RMK A01 T01240057  RH  065%=      5-min Rain = 0
KTUR 100145Z 21008KT 12/06 A3007 RMK A01 T01220058  RH  066%=      5-min Rain = 0
KTUR 100150Z 21008KT 12/06 A3007 RMK A01 T01210059  RH  067%=      5-min Rain = 0
KTUR 100155Z 21008KT 12/06 A3007 RMK A01 T01190059  RH  068%=      5-min Rain = 0
KTUR 100200Z 21008KT 12/06 A3007 RMK A01 T01180059  RH  068%=      5-min Rain = 0
KTUR 100205Z 21007KT 12/06 A3007 RMK A01 T01190059  RH  068%=      5-min Rain = 0
KTUR 100210Z 21008KT 12/06 A3007 RMK A01 T01180059  RH  068%=      5-min Rain = 0
KTUR 100215Z 21007KT 12/06 A3007 RMK A01 T01160058  RH  068%=      5-min Rain = 0
KTUR 100220Z 21008KT 12/06 A3006 RMK A01 T01160058  RH  069%=      5-min Rain = 0
KTUR 100225Z 21008KT 12/06 A3006 RMK A01 T01170059  RH  069%=      5-min Rain = 0
KTUR 100230Z 21008KT 12/06 A3006 RMK A01 T01170060  RH  069%=      5-min Rain = 0
KTUR 100235Z 21009KT 12/06 A3006 RMK A01 T01150061  RH  071%=      5-min Rain = 0
KTUR 100240Z 22009KT 12/06 A3006 RMK A01 T01150061  RH  071%=      5-min Rain = 0
KTUR 100245Z 22010KT 11/06 A3006 RMK A01 T01130062  RH  072%=      5-min Rain = 0
KTUR 100250Z 22010KT 11/06 A3006 RMK A01 T01140062  RH  072%=      5-min Rain = 0
KTUR 100255Z 22010KT 12/06 A3006 RMK A01 T01150062  RH  071%=      5-min Rain = 0
KTUR 100300Z 22010KT 12/06 A3006 RMK A01 T01160063  RH  071%=      5-min Rain = 0
KTUR 100305Z 21010KT 12/06 A3006 RMK A01 T01170063  RH  070%=      5-min Rain = 0
KTUR 100310Z 22009KT 12/07 A3006 RMK A01 T01190065  RH  071%=      5-min Rain = 0
KTUR 100315Z 22009KT 12/07 A3006 RMK A01 T01190066  RH  071%=      5-min Rain = 0
KTUR 100320Z 22010KT 12/07 A3006 RMK A01 T01190067  RH  072%=      5-min Rain = 0
KTUR 100325Z 22010KT 12/07 A3006 RMK A01 T01190069  RH  072%=      5-min Rain = 0
KTUR 100330Z 22010KT 12/07 A3006 RMK A01 T01190070  RH  073%=      5-min Rain = 0
KTUR 100335Z 22010KT 12/07 A3006 RMK A01 T01170070  RH  074%=      5-min Rain = 0
KTUR 100340Z 22009KT 12/07 A3006 RMK A01 T01160072  RH  075%=      5-min Rain = 0
KTUR 100345Z 22009KT 12/07 A3006 RMK A01 T01160073  RH  076%=      5-min Rain = 0
KTUR 100350Z 22010KT 12/07 A3006 RMK A01 T01160074  RH  077%=      5-min Rain = 0
KTUR 100355Z 22010KT 12/08 A3006 RMK A01 T01190076  RH  076%=      5-min Rain = 0
KTUR 100400Z 22009KT 12/08 A3006 RMK A01 T01190076  RH  076%=      5-min Rain = 0
KTUR 100405Z 22010KT 12/08 A3007 RMK A01 T01170076  RH  077%=      5-min Rain = 0
KTUR 100410Z 22010KT 12/08 A3007 RMK A01 T01170076  RH  077%=      5-min Rain = 0
KTUR 100415Z 21011KT 12/08 A3006 RMK A01 T01170077  RH  077%=      5-min Rain = 0
KTUR 100420Z 22011KT 12/08 A3006 RMK A01 T01170077  RH  078%=      5-min Rain = 0
KTUR 100425Z 22011KT 12/08 A3006 RMK A01 T01170078  RH  078%=      5-min Rain = 0
KTUR 100430Z 22011KT 12/08 A3006 RMK A01 T01170078  RH  078%=      5-min Rain = 0
KTUR 100435Z 22011KT 12/08 A3006 RMK A01 T01180078  RH  077%=      5-min Rain = 0
KTUR 100440Z 22011KT 12/08 A3007 RMK A01 T01180077  RH  077%=      5-min Rain = 0
KTUR 100445Z 21011KT 12/08 A3006 RMK A01 T01170076  RH  077%=      5-min Rain = 0
KTUR 100450Z 21010KT 12/08 A3006 RMK A01 T01150075  RH  078%=      5-min Rain = 0
KTUR 100455Z 22011KT 12/08 A3006 RMK A01 T01150075  RH  078%=      5-min Rain = 0
KTUR 100500Z 22011KT 11/08 A3006 RMK A01 T01140075  RH  078%=      5-min Rain = 0
KTUR 100505Z 22011KT 12/08 A3006 RMK A01 T01150075  RH  077%=      5-min Rain = 0
KTUR 100510Z 21011KT 12/07 A3006 RMK A01 T01150074  RH  077%=      5-min Rain = 0
KTUR 100515Z 22011KT 12/07 A3006 RMK A01 T01150074  RH  077%=      5-min Rain = 0
KTUR 100520Z 22011KT 11/07 A3006 RMK A01 T01120073  RH  078%=      5-min Rain = 0
KTUR 100525Z 22011KT 11/07 A3006 RMK A01 T01120073  RH  078%=      5-min Rain = 0
KTUR 100530Z 22011KT 11/07 A3006 RMK A01 T01100072  RH  078%=      5-min Rain = 0
KTUR 100535Z 22011KT 11/07 A3006 RMK A01 T01090072  RH  079%=      5-min Rain = 0
KTUR 100540Z 22011KT 11/07 A3006 RMK A01 T01090072  RH  079%=      5-min Rain = 0
KTUR 100545Z 22010KT 11/07 A3006 RMK A01 T01080072  RH  079%=      5-min Rain = 0
KTUR 100550Z 22010KT 11/07 A3006 RMK A01 T01070072  RH  080%=      5-min Rain = 0
KTUR 100555Z 22011KT 11/07 A3005 RMK A01 T01090073  RH  079%=      5-min Rain = 0

Page generated in 0.0088 seconds.